Harle — ZCTV4 — position and weather

sailwx.info

Track history (hours):
 
Tides and Currents Weather Stations Pressure Air Temp Water Temp Dewpoint Dewpoint Depression Visibility Wind Speed Wind Dir Waves Ship Positions

Harle

Last reported at 2017-Aug-19 12:36 UTC. Time now 2017-Aug-20 23:11 UTC.
Position N 43°26' E 006°57'.

Length 45 m; draft 2.7 m.

Type: Pleasure craft. MMSI: 319323000.

Date/timePositionNaut miles runAvg speedWind from/ knotsBaromVisibWave heightAir tempDewpointWater temp
2017-Aug-19 12:36N 43°26' E 006°57'111.9
2017-Aug-19 12:31N 43°26' E 006°58'611.9
2017-Aug-19 12:01N 43°30' E 007°05'611.2
2017-Aug-19 11:30N 43°34' E 007°11'  
2017-Aug-16 11:41N 43°41' E 007°18'212.2
2017-Aug-16 11:30N 43°41' E 007°21'5 9.9
2017-Aug-16 11:00N 43°44' E 007°26'0 0.0
2017-Aug-16 08:54N 43°44' E 007°26'0 1.0
2017-Aug-16 08:30N 43°44' E 007°26'812.7
2017-Aug-16 07:52N 43°38' E 007°18'613.0
2017-Aug-16 07:26N 43°34' E 007°13'512.9
2017-Aug-16 07:00N 43°31' E 007°07'4 8.1
2017-Aug-16 06:30N 43°32' E 007°01'1 1.2
2017-Aug-16 06:00N 43°33' E 007°01'0 0.0
2017-Aug-16 05:30N 43°33' E 007°01'0 0.0
2017-Aug-16 05:00N 43°33' E 007°01'0 0.0
2017-Aug-16 04:27N 43°33' E 007°01'0 0.0
2017-Aug-16 03:57N 43°33' E 007°01'0 0.0
2017-Aug-16 03:27N 43°33' E 007°01'0 0.0
2017-Aug-16 02:57N 43°33' E 007°01'0 0.0
2017-Aug-16 02:27N 43°33' E 007°01'0 0.0
2017-Aug-16 01:48N 43°33' E 007°01'0 0.0
2017-Aug-16 01:15N 43°33' E 007°01'0 0.0
2017-Aug-16 00:54N 43°33' E 007°01'0 0.0
2017-Aug-16 00:21N 43°33' E 007°01'0 0.0
2017-Aug-15 23:51N 43°33' E 007°01'0 0.0
2017-Aug-15 23:21N 43°33' E 007°01'0 0.0
2017-Aug-15 22:51N 43°33' E 007°01'0 0.0
2017-Aug-15 22:09N 43°33' E 007°01'0 0.0
2017-Aug-15 21:51N 43°33' E 007°01'0 0.0
2017-Aug-15 21:24N 43°33' E 007°01'0 0.0
2017-Aug-15 21:00N 43°33' E 007°01'0 0.0
2017-Aug-15 20:21N 43°33' E 007°01'0 0.0
2017-Aug-15 20:00N 43°33' E 007°01'0 0.0
2017-Aug-15 19:24N 43°33' E 007°01'0 0.0
2017-Aug-15 18:51N 43°33' E 007°01'0 0.0
2017-Aug-15 18:30N 43°33' E 007°01'0 0.0
2017-Aug-15 17:57N 43°33' E 007°01'0 0.0
2017-Aug-15 17:27N 43°33' E 007°01'0 0.0
2017-Aug-15 16:57N 43°33' E 007°01'0 0.0
2017-Aug-15 16:27N 43°33' E 007°01'0 0.0
2017-Aug-15 15:57N 43°33' E 007°01'1 2.1
2017-Aug-15 15:30N 43°32' E 007°01'3 6.6
2017-Aug-15 15:00N 43°32' E 007°06'2 0.3
2017-Aug-15 09:56N 43°33' E 007°07'0 1.1
2017-Aug-15 09:30N 43°33' E 007°07'510.0
2017-Aug-15 09:00N 43°35' E 007°13'712.8
2017-Aug-15 08:27N 43°41' E 007°18'1 0.0
2017-Aug-14 09:54N 43°40' E 007°19'6 2.9
2017-Aug-14 07:47N 43°44' E 007°26'0 0.0
2017-Aug-14 06:41N 43°44' E 007°26'0 0.0
2017-Aug-14 05:38N 43°44' E 007°26'0 0.0
2017-Aug-14 05:29N 43°44' E 007°26'0 0.0
2017-Aug-13 17:35N 43°44' E 007°26'0 0.0
2017-Aug-13 17:26N 43°44' E 007°26'0 0.0
2017-Aug-13 16:53N 43°44' E 007°26'0 0.0
2017-Aug-13 16:23N 43°44' E 007°26'0 0.0
2017-Aug-13 15:35N 43°44' E 007°26'0 0.0
2017-Aug-13 15:29N 43°44' E 007°26'0 0.0
2017-Aug-13 15:00N 43°44' E 007°26'3 6.2
2017-Aug-13 14:30N 43°42' E 007°23'13 1.4
2017-Aug-13 05:42N 43°35' E 007°08'0 0.0
2017-Aug-13 05:28N 43°35' E 007°08'0 0.0
2017-Aug-13 04:58N 43°35' E 007°08'0 0.0
2017-Aug-13 03:43N 43°35' E 007°08'1 0.0
2017-Aug-12 14:30N 43°35' E 007°08'0 0.2
2017-Aug-12 13:09N 43°34' E 007°08'0 0.0
2017-Aug-12 12:39N 43°34' E 007°08'0 0.0
2017-Aug-12 12:24N 43°34' E 007°08'0 0.0
2017-Aug-12 12:00N 43°34' E 007°08'0 0.0
2017-Aug-12 09:13N 43°34' E 007°08'3 0.1
2017-Aug-11 08:47N 43°31' E 007°08'412.0
2017-Aug-11 08:29N 43°29' E 007°04'511.4
2017-Aug-11 08:01N 43°31' E 006°57'0 0.4
2017-Aug-11 07:29N 43°31' E 006°57'0 0.0
2017-Aug-11 06:59N 43°31' E 006°57'0 0.0
2017-Aug-11 06:29N 43°31' E 006°57'0 0.0
2017-Aug-11 05:59N 43°31' E 006°57'0 0.0
2017-Aug-11 05:29N 43°31' E 006°57'0 0.0
2017-Aug-11 04:59N 43°31' E 006°57'0 0.0
2017-Aug-11 04:29N 43°31' E 006°57'0 0.0
2017-Aug-11 03:59N 43°31' E 006°57'0 0.0
2017-Aug-11 03:29N 43°31' E 006°57'0 0.0
2017-Aug-11 02:59N 43°31' E 006°57'0 0.0
2017-Aug-11 02:29N 43°31' E 006°57'0 0.0
2017-Aug-11 01:59N 43°31' E 006°57'0 0.0
2017-Aug-11 01:29N 43°31' E 006°57'0 0.0
2017-Aug-11 00:59N 43°31' E 006°57'0 0.0
2017-Aug-11 00:26N 43°31' E 006°57'0 0.0
2017-Aug-10 23:56N 43°31' E 006°57'0 0.0
2017-Aug-10 23:26N 43°31' E 006°57'0 0.0
2017-Aug-10 22:53N 43°31' E 006°57'0 0.0
2017-Aug-10 22:29N 43°31' E 006°57'0 0.0
2017-Aug-10 21:59N 43°31' E 006°57'0 0.0
2017-Aug-10 21:26N 43°31' E 006°57'0 0.0
2017-Aug-10 20:59N 43°31' E 006°57'0 0.0
2017-Aug-10 20:29N 43°31' E 006°57'0 0.0
2017-Aug-10 19:56N 43°31' E 006°57'0 0.0
2017-Aug-10 19:26N 43°31' E 006°57'0 0.0
2017-Aug-10 18:59N 43°31' E 006°57'0 0.0
2017-Aug-10 18:29N 43°31' E 006°57'0 0.0
2017-Aug-10 17:59N 43°31' E 006°57'0 0.0
2017-Aug-10 17:29N 43°31' E 006°57'0 0.0
2017-Aug-10 16:59N 43°31' E 006°57'0 0.0
2017-Aug-10 16:29N 43°31' E 006°57'0 0.0
2017-Aug-10 15:59N 43°31' E 006°57'0 0.0
2017-Aug-10 15:29N 43°31' E 006°57'0 0.0
2017-Aug-10 14:59N 43°31' E 006°57'0 0.0
2017-Aug-10 14:29N 43°31' E 006°57'0 0.0
2017-Aug-10 13:47N 43°31' E 006°57'0 0.0
2017-Aug-10 13:29N 43°31' E 006°57'0 0.0
2017-Aug-10 12:59N 43°31' E 006°57'0 0.0
2017-Aug-10 12:29N 43°31' E 006°57'0 0.0
2017-Aug-10 11:59N 43°31' E 006°57'0 0.0
2017-Aug-10 11:29N 43°31' E 006°57'0 0.0
2017-Aug-10 10:59N 43°31' E 006°57'0 0.0
2017-Aug-10 10:29N 43°31' E 006°57'0 0.0
2017-Aug-10 09:59N 43°31' E 006°57'0 0.0
2017-Aug-10 09:23N 43°31' E 006°57'0 0.0
2017-Aug-10 08:59N 43°31' E 006°57'0 0.0
2017-Aug-10 08:29N 43°31' E 006°57'0 0.0
2017-Aug-10 07:56N 43°31' E 006°57'0 0.0
2017-Aug-10 07:29N 43°31' E 006°57'0 0.0
2017-Aug-10 06:56N 43°31' E 006°57'0 0.0
2017-Aug-10 06:26N 43°31' E 006°57'0 0.0
2017-Aug-10 05:56N 43°31' E 006°57'0 0.0
2017-Aug-10 05:29N 43°31' E 006°57'0 0.0
2017-Aug-10 04:59N 43°31' E 006°57'0 0.0
2017-Aug-10 04:26N 43°31' E 006°57'0 0.0
2017-Aug-10 03:59N 43°31' E 006°57'0 0.0
2017-Aug-10 03:29N 43°31' E 006°57'0 0.0
2017-Aug-10 02:59N 43°31' E 006°57'0 0.0
2017-Aug-10 02:29N 43°31' E 006°57'0 0.0
2017-Aug-10 01:59N 43°31' E 006°57'0 0.0
2017-Aug-10 01:29N 43°31' E 006°57'0 0.0
2017-Aug-10 00:59N 43°31' E 006°57'0 0.0
2017-Aug-10 00:29N 43°31' E 006°57'0 0.0
2017-Aug-09 23:59N 43°31' E 006°57'0 0.0
2017-Aug-09 23:29N 43°31' E 006°57'0 0.0
2017-Aug-09 22:59N 43°31' E 006°57'0 0.0
2017-Aug-09 22:29N 43°31' E 006°57'0 0.0
2017-Aug-09 21:59N 43°31' E 006°57'0 0.0
2017-Aug-09 21:29N 43°31' E 006°57'0 0.0
2017-Aug-09 20:59N 43°31' E 006°57'0 0.0
2017-Aug-09 20:29N 43°31' E 006°57'0 0.0
2017-Aug-09 19:59N 43°31' E 006°57'0 0.0
2017-Aug-09 19:29N 43°31' E 006°57'0 0.0
2017-Aug-09 18:56N 43°31' E 006°57'0 0.0
2017-Aug-09 18:26N 43°31' E 006°57'0 0.0
2017-Aug-09 17:59N 43°31' E 006°57'0 0.0
2017-Aug-09 17:29N 43°31' E 006°57'0 0.0
2017-Aug-09 16:59N 43°31' E 006°57'0 0.0
2017-Aug-09 16:29N 43°31' E 006°57'0 0.0
2017-Aug-09 15:59N 43°31' E 006°57'0 0.0
2017-Aug-09 15:29N 43°31' E 006°57'0 0.5
2017-Aug-09 15:01N 43°31' E 006°57'1 1.4
2017-Aug-09 14:31N 43°31' E 006°57'0 0.0
2017-Aug-09 13:55N 43°31' E 006°57'0 0.0
2017-Aug-09 13:28N 43°31' E 006°57'0 0.0
2017-Aug-09 12:58N 43°31' E 006°57'  
Track history (hours):
 
Tides and Currents Weather Stations Pressure Air Temp Water Temp Dewpoint Dewpoint Depression Visibility Wind Speed Wind Dir Waves Ship Positions

Harle

Last reported at 2017-Aug-19 12:36 UTC. Time now 2017-Aug-20 23:11 UTC.
Position N 43°26' E 006°57'.

Length 45 m; draft 2.7 m.

Type: Pleasure craft. MMSI: 319323000.

Date/timePositionNaut miles runAvg speedWind from/ knotsBaromVisibWave heightAir tempDewpointWater temp
2017-Aug-19 12:36N 43°26' E 006°57'111.9
2017-Aug-19 12:31N 43°26' E 006°58'611.9
2017-Aug-19 12:01N 43°30' E 007°05'611.2
2017-Aug-19 11:30N 43°34' E 007°11'  
2017-Aug-16 11:41N 43°41' E 007°18'212.2
2017-Aug-16 11:30N 43°41' E 007°21'5 9.9
2017-Aug-16 11:00N 43°44' E 007°26'0 0.0
2017-Aug-16 08:54N 43°44' E 007°26'0 1.0
2017-Aug-16 08:30N 43°44' E 007°26'812.7
2017-Aug-16 07:52N 43°38' E 007°18'613.0
2017-Aug-16 07:26N 43°34' E 007°13'512.9
2017-Aug-16 07:00N 43°31' E 007°07'4 8.1
2017-Aug-16 06:30N 43°32' E 007°01'1 1.2
2017-Aug-16 06:00N 43°33' E 007°01'0 0.0
2017-Aug-16 05:30N 43°33' E 007°01'0 0.0
2017-Aug-16 05:00N 43°33' E 007°01'0 0.0
2017-Aug-16 04:27N 43°33' E 007°01'0 0.0
2017-Aug-16 03:57N 43°33' E 007°01'0 0.0
2017-Aug-16 03:27N 43°33' E 007°01'0 0.0
2017-Aug-16 02:57N 43°33' E 007°01'0 0.0
2017-Aug-16 02:27N 43°33' E 007°01'0 0.0
2017-Aug-16 01:48N 43°33' E 007°01'0 0.0
2017-Aug-16 01:15N 43°33' E 007°01'0 0.0
2017-Aug-16 00:54N 43°33' E 007°01'0 0.0
2017-Aug-16 00:21N 43°33' E 007°01'0 0.0
2017-Aug-15 23:51N 43°33' E 007°01'0 0.0
2017-Aug-15 23:21N 43°33' E 007°01'0 0.0
2017-Aug-15 22:51N 43°33' E 007°01'0 0.0
2017-Aug-15 22:09N 43°33' E 007°01'0 0.0
2017-Aug-15 21:51N 43°33' E 007°01'0 0.0
2017-Aug-15 21:24N 43°33' E 007°01'0 0.0
2017-Aug-15 21:00N 43°33' E 007°01'0 0.0
2017-Aug-15 20:21N 43°33' E 007°01'0 0.0
2017-Aug-15 20:00N 43°33' E 007°01'0 0.0
2017-Aug-15 19:24N 43°33' E 007°01'0 0.0
2017-Aug-15 18:51N 43°33' E 007°01'0 0.0
2017-Aug-15 18:30N 43°33' E 007°01'0 0.0
2017-Aug-15 17:57N 43°33' E 007°01'0 0.0
2017-Aug-15 17:27N 43°33' E 007°01'0 0.0
2017-Aug-15 16:57N 43°33' E 007°01'0 0.0
2017-Aug-15 16:27N 43°33' E 007°01'0 0.0
2017-Aug-15 15:57N 43°33' E 007°01'1 2.1
2017-Aug-15 15:30N 43°32' E 007°01'3 6.6
2017-Aug-15 15:00N 43°32' E 007°06'2 0.3
2017-Aug-15 09:56N 43°33' E 007°07'0 1.1
2017-Aug-15 09:30N 43°33' E 007°07'510.0
2017-Aug-15 09:00N 43°35' E 007°13'712.8
2017-Aug-15 08:27N 43°41' E 007°18'1 0.0
2017-Aug-14 09:54N 43°40' E 007°19'6 2.9
2017-Aug-14 07:47N 43°44' E 007°26'0 0.0
2017-Aug-14 06:41N 43°44' E 007°26'0 0.0
2017-Aug-14 05:38N 43°44' E 007°26'0 0.0
2017-Aug-14 05:29N 43°44' E 007°26'0 0.0
2017-Aug-13 17:35N 43°44' E 007°26'0 0.0
2017-Aug-13 17:26N 43°44' E 007°26'0 0.0
2017-Aug-13 16:53N 43°44' E 007°26'0 0.0
2017-Aug-13 16:23N 43°44' E 007°26'0 0.0
2017-Aug-13 15:35N 43°44' E 007°26'0 0.0
2017-Aug-13 15:29N 43°44' E 007°26'0 0.0
2017-Aug-13 15:00N 43°44' E 007°26'3 6.2
2017-Aug-13 14:30N 43°42' E 007°23'13 1.4
2017-Aug-13 05:42N 43°35' E 007°08'0 0.0
2017-Aug-13 05:28N 43°35' E 007°08'0 0.0
2017-Aug-13 04:58N 43°35' E 007°08'0 0.0
2017-Aug-13 03:43N 43°35' E 007°08'1 0.0
2017-Aug-12 14:30N 43°35' E 007°08'0 0.2
2017-Aug-12 13:09N 43°34' E 007°08'0 0.0
2017-Aug-12 12:39N 43°34' E 007°08'0 0.0
2017-Aug-12 12:24N 43°34' E 007°08'0 0.0
2017-Aug-12 12:00N 43°34' E 007°08'0 0.0
2017-Aug-12 09:13N 43°34' E 007°08'3 0.1
2017-Aug-11 08:47N 43°31' E 007°08'412.0
2017-Aug-11 08:29N 43°29' E 007°04'511.4
2017-Aug-11 08:01N 43°31' E 006°57'0 0.4
2017-Aug-11 07:29N 43°31' E 006°57'0 0.0
2017-Aug-11 06:59N 43°31' E 006°57'0 0.0
2017-Aug-11 06:29N 43°31' E 006°57'0 0.0
2017-Aug-11 05:59N 43°31' E 006°57'0 0.0
2017-Aug-11 05:29N 43°31' E 006°57'0 0.0
2017-Aug-11 04:59N 43°31' E 006°57'0 0.0
2017-Aug-11 04:29N 43°31' E 006°57'0 0.0
2017-Aug-11 03:59N 43°31' E 006°57'0 0.0
2017-Aug-11 03:29N 43°31' E 006°57'0 0.0
2017-Aug-11 02:59N 43°31' E 006°57'0 0.0
2017-Aug-11 02:29N 43°31' E 006°57'0 0.0
2017-Aug-11 01:59N 43°31' E 006°57'0 0.0
2017-Aug-11 01:29N 43°31' E 006°57'0 0.0
2017-Aug-11 00:59N 43°31' E 006°57'0 0.0
2017-Aug-11 00:26N 43°31' E 006°57'0 0.0
2017-Aug-10 23:56N 43°31' E 006°57'0 0.0
2017-Aug-10 23:26N 43°31' E 006°57'0 0.0
2017-Aug-10 22:53N 43°31' E 006°57'0 0.0
2017-Aug-10 22:29N 43°31' E 006°57'0 0.0
2017-Aug-10 21:59N 43°31' E 006°57'0 0.0
2017-Aug-10 21:26N 43°31' E 006°57'0 0.0
2017-Aug-10 20:59N 43°31' E 006°57'0 0.0
2017-Aug-10 20:29N 43°31' E 006°57'0 0.0
2017-Aug-10 19:56N 43°31' E 006°57'0 0.0
2017-Aug-10 19:26N 43°31' E 006°57'0 0.0
2017-Aug-10 18:59N 43°31' E 006°57'0 0.0
2017-Aug-10 18:29N 43°31' E 006°57'0 0.0
2017-Aug-10 17:59N 43°31' E 006°57'0 0.0
2017-Aug-10 17:29N 43°31' E 006°57'0 0.0
2017-Aug-10 16:59N 43°31' E 006°57'0 0.0
2017-Aug-10 16:29N 43°31' E 006°57'0 0.0
2017-Aug-10 15:59N 43°31' E 006°57'0 0.0
2017-Aug-10 15:29N 43°31' E 006°57'0 0.0
2017-Aug-10 14:59N 43°31' E 006°57'0 0.0
2017-Aug-10 14:29N 43°31' E 006°57'0 0.0
2017-Aug-10 13:47N 43°31' E 006°57'0 0.0
2017-Aug-10 13:29N 43°31' E 006°57'0 0.0
2017-Aug-10 12:59N 43°31' E 006°57'0 0.0
2017-Aug-10 12:29N 43°31' E 006°57'0 0.0
2017-Aug-10 11:59N 43°31' E 006°57'0 0.0
2017-Aug-10 11:29N 43°31' E 006°57'0 0.0
2017-Aug-10 10:59N 43°31' E 006°57'0 0.0
2017-Aug-10 10:29N 43°31' E 006°57'0 0.0
2017-Aug-10 09:59N 43°31' E 006°57'0 0.0
2017-Aug-10 09:23N 43°31' E 006°57'0 0.0
2017-Aug-10 08:59N 43°31' E 006°57'0 0.0
2017-Aug-10 08:29N 43°31' E 006°57'0 0.0
2017-Aug-10 07:56N 43°31' E 006°57'0 0.0
2017-Aug-10 07:29N 43°31' E 006°57'0 0.0
2017-Aug-10 06:56N 43°31' E 006°57'0 0.0
2017-Aug-10 06:26N 43°31' E 006°57'0 0.0
2017-Aug-10 05:56N 43°31' E 006°57'0 0.0
2017-Aug-10 05:29N 43°31' E 006°57'0 0.0
2017-Aug-10 04:59N 43°31' E 006°57'0 0.0
2017-Aug-10 04:26N 43°31' E 006°57'0 0.0
2017-Aug-10 03:59N 43°31' E 006°57'0 0.0
2017-Aug-10 03:29N 43°31' E 006°57'0 0.0
2017-Aug-10 02:59N 43°31' E 006°57'0 0.0
2017-Aug-10 02:29N 43°31' E 006°57'0 0.0
2017-Aug-10 01:59N 43°31' E 006°57'0 0.0
2017-Aug-10 01:29N 43°31' E 006°57'0 0.0
2017-Aug-10 00:59N 43°31' E 006°57'0 0.0
2017-Aug-10 00:29N 43°31' E 006°57'0 0.0
2017-Aug-09 23:59N 43°31' E 006°57'0 0.0
2017-Aug-09 23:29N 43°31' E 006°57'0 0.0
2017-Aug-09 22:59N 43°31' E 006°57'0 0.0
2017-Aug-09 22:29N 43°31' E 006°57'0 0.0
2017-Aug-09 21:59N 43°31' E 006°57'0 0.0
2017-Aug-09 21:29N 43°31' E 006°57'0 0.0
2017-Aug-09 20:59N 43°31' E 006°57'0 0.0
2017-Aug-09 20:29N 43°31' E 006°57'0 0.0
2017-Aug-09 19:59N 43°31' E 006°57'0 0.0
2017-Aug-09 19:29N 43°31' E 006°57'0 0.0
2017-Aug-09 18:56N 43°31' E 006°57'0 0.0
2017-Aug-09 18:26N 43°31' E 006°57'0 0.0
2017-Aug-09 17:59N 43°31' E 006°57'0 0.0
2017-Aug-09 17:29N 43°31' E 006°57'0 0.0
2017-Aug-09 16:59N 43°31' E 006°57'0 0.0
2017-Aug-09 16:29N 43°31' E 006°57'0 0.0
2017-Aug-09 15:59N 43°31' E 006°57'0 0.0
2017-Aug-09 15:29N 43°31' E 006°57'0 0.5
2017-Aug-09 15:01N 43°31' E 006°57'1 1.4
2017-Aug-09 14:31N 43°31' E 006°57'0 0.0
2017-Aug-09 13:55N 43°31' E 006°57'0 0.0
2017-Aug-09 13:28N 43°31' E 006°57'0 0.0
2017-Aug-09 12:58N 43°31' E 006°57'  

Dump ship's entire track history